YBCG/OOL METAR and TAF weather

Enter ICAO airport designator
Station Type Date Time Source
YBCG METAR 2019/06/26 18:00 UTC NOAA

YBCG 261800Z AUTO 19005KT 9999 // SCT042 SCT059 15/14 Q1028


Station Type Date Time Source
YBCG Decoded METAR 2019/06/26 18:00 UTC NOAA

Coolangatta Airport Aws, Australia (YBCG) 28-10S 153-30E 6M
Jun 26, 2019 - 02:00 PM EDT / 2019.06.26 1800 UTC
Wind: from the S (190 degrees) at 6 MPH (5 KT):0
Visibility: greater than 7 mile(s):0
Sky conditions: partly cloudy
Temperature: 59 F (15 C)
Dew Point: 57 F (14 C)
Relative Humidity: 93%
Pressure (altimeter): 30.36 in. Hg (1028 hPa)
ob: YBCG 261800Z AUTO 19005KT 9999 // SCT042 SCT059 15/14 Q1028
cycle: 18

Station Type Date Time Source
YBCG TAF 2019/06/26 18:33 UTC NOAA

TAF YBCG 261729Z 2618/2718 20007KT 9999 NSW SCT030 SCT055
FM270000 16012KT 9999 -SHRA SCT035 SCT065
FM271000 20007KT 9999 -SHRA SCT030 SCT055 INTER 2701/2718 3000 SHRA BKN012

Example: see airport list